Time;durP1;ratioP1;P1;durP2;ratioP2;P2;SDS_P1;SDS_P2;PMS_P1;PMS_P2;Temp;Humidity;BMP_temperature;BMP_pressure;BME280_temperature;BME280_humidity;BME280_pressure;Samples;Min_cycle;Max_cycle;Signal;HPM_P1;HPM_P2
2021/08/22 00:00:20;;;;;;;7.95;6.78;;;19.10;99.90;;;;;;5081218;28;20103;-75
2021/08/22 00:02:45;;;;;;;9.48;6.63;;;19.20;99.90;;;;;;5088561;28;20077;-75
2021/08/22 00:05:11;;;;;;;9.07;6.47;;;19.20;99.90;;;;;;5086326;28;20020;-76
2021/08/22 00:07:37;;;;;;;7.72;6.80;;;19.30;99.90;;;;;;5091681;28;20036;-76
2021/08/22 00:10:04;;;;;;;8.50;6.97;;;19.30;99.90;;;;;;5076224;28;20077;-76
2021/08/22 00:12:29;;;;;;;9.85;6.68;;;19.30;99.90;;;;;;5072097;28;20071;-76
2021/08/22 00:14:55;;;;;;;8.13;5.95;;;19.30;99.90;;;;;;5087917;28;20056;-76
2021/08/22 00:17:20;;;;;;;10.50;7.38;;;19.20;99.90;;;;;;5086334;28;20478;-75
2021/08/22 00:19:46;;;;;;;9.10;7.10;;;19.30;99.90;;;;;;5081855;28;20089;-76
2021/08/22 00:22:12;;;;;;;7.50;6.65;;;19.30;99.90;;;;;;5097043;28;20052;-76
2021/08/22 00:24:38;;;;;;;6.75;6.13;;;19.20;99.90;;;;;;5084446;28;20828;-75
2021/08/22 00:27:04;;;;;;;7.43;6.38;;;19.20;99.90;;;;;;5104562;28;20051;-76
2021/08/22 00:29:30;;;;;;;7.28;6.53;;;19.20;99.90;;;;;;5096799;27;20393;-75
2021/08/22 00:31:55;;;;;;;7.75;6.50;;;19.20;99.90;;;;;;5090322;28;20481;-76
2021/08/22 00:34:21;;;;;;;8.05;6.45;;;19.20;99.90;;;;;;5088667;28;20035;-75
2021/08/22 00:36:46;;;;;;;7.95;6.90;;;19.20;99.90;;;;;;5085429;28;20101;-75
2021/08/22 00:39:12;;;;;;;7.85;7.05;;;19.20;99.90;;;;;;5091716;28;20433;-75
2021/08/22 00:41:38;;;;;;;7.93;6.70;;;19.20;99.90;;;;;;5085279;28;20028;-75
2021/08/22 00:44:04;;;;;;;7.05;6.35;;;19.10;99.90;;;;;;5081644;28;20037;-75
2021/08/22 00:46:31;;;;;;;9.25;7.50;;;19.20;99.90;;;;;;5095197;28;20024;-76
2021/08/22 00:48:57;;;;;;;8.07;6.90;;;19.20;99.90;;;;;;5080404;28;20024;-76
2021/08/22 00:51:23;;;;;;;9.38;6.60;;;19.30;99.90;;;;;;5084147;28;20020;-76
2021/08/22 00:53:48;;;;;;;7.57;6.80;;;19.30;99.90;;;;;;5088341;28;20078;-76
2021/08/22 00:56:15;;;;;;;7.97;7.18;;;19.20;99.90;;;;;;5085656;28;20043;-76
2021/08/22 00:58:41;;;;;;;9.20;6.35;;;19.20;99.90;;;;;;5080320;28;20017;-76
2021/08/22 01:01:14;;;;;;;8.80;6.68;;;19.20;99.90;;;;;;5083515;28;20067;-75
2021/08/22 01:04:08;;;;;;;7.80;6.38;;;19.10;99.90;;;;;;5074754;28;20032;-75
2021/08/22 01:07:00;;;;;;;7.30;6.60;;;19.20;99.90;;;;;;5075110;28;20032;-76
2021/08/22 01:09:34;;;;;;;7.47;6.68;;;19.20;99.90;;;;;;5087360;28;20023;-76
2021/08/22 01:12:03;;;;;;;7.10;6.38;;;19.20;99.90;;;;;;5081840;28;20035;-76
2021/08/22 01:14:35;;;;;;;8.10;6.63;;;19.10;99.90;;;;;;5092434;28;20020;-76
2021/08/22 01:17:02;;;;;;;9.43;6.95;;;19.00;99.90;;;;;;5074542;28;20013;-77
2021/08/22 01:19:33;;;;;;;7.63;6.55;;;19.00;99.90;;;;;;5088159;28;20023;-75
2021/08/22 01:22:04;;;;;;;8.52;6.53;;;19.10;99.90;;;;;;5088824;28;20548;-76
2021/08/22 01:24:31;;;;;;;8.52;6.70;;;19.20;99.90;;;;;;5091018;28;20063;-74
2021/08/22 01:26:58;;;;;;;8.57;7.03;;;19.30;99.90;;;;;;5087555;28;20024;-75
2021/08/22 01:29:29;;;;;;;8.50;6.60;;;19.20;99.90;;;;;;5090599;28;20093;-76
2021/08/22 01:31:59;;;;;;;9.10;7.03;;;19.20;99.90;;;;;;5083769;28;20020;-76
2021/08/22 01:34:26;;;;;;;9.65;6.82;;;19.10;99.90;;;;;;5087294;28;20123;-75
2021/08/22 01:36:52;;;;;;;8.00;7.07;;;19.10;99.90;;;;;;5085235;28;20601;-77
2021/08/22 01:39:19;;;;;;;8.52;6.63;;;19.00;99.90;;;;;;5082181;28;20027;-75
2021/08/22 01:41:47;;;;;;;9.07;7.43;;;18.90;99.90;;;;;;5083035;28;20027;-74
2021/08/22 01:44:17;;;;;;;10.57;7.72;;;19.00;99.90;;;;;;5078431;28;20020;-74
2021/08/22 01:46:44;;;;;;;9.35;7.28;;;18.90;99.90;;;;;;5081903;28;20024;-75
2021/08/22 01:49:11;;;;;;;8.70;7.15;;;18.70;99.90;;;;;;5073805;28;20021;-74
2021/08/22 01:51:37;;;;;;;8.55;6.65;;;18.80;99.90;;;;;;5084824;28;20533;-74
2021/08/22 01:54:09;;;;;;;7.68;6.88;;;18.70;99.90;;;;;;5074516;28;20067;-75
2021/08/22 01:56:36;;;;;;;9.30;7.13;;;18.40;99.90;;;;;;5090256;28;20039;-75
2021/08/22 01:59:03;;;;;;;10.13;7.65;;;18.40;99.90;;;;;;5100425;28;20373;-75
2021/08/22 02:01:29;;;;;;;14.25;7.10;;;18.30;99.90;;;;;;5093556;28;20020;-75
2021/08/22 02:04:03;;;;;;;10.13;7.22;;;18.20;99.90;;;;;;5095370;28;20025;-75
2021/08/22 02:06:49;;;;;;;7.85;7.05;;;18.20;99.90;;;;;;5086850;28;20031;-75
2021/08/22 02:09:19;;;;;;;8.77;7.15;;;18.20;99.90;;;;;;5073596;28;20025;-75
2021/08/22 02:11:50;;;;;;;8.00;7.20;;;18.40;99.90;;;;;;5089822;28;20093;-75
2021/08/22 02:14:19;;;;;;;7.20;6.50;;;18.30;99.90;;;;;;5087069;28;20435;-75
2021/08/22 02:16:51;;;;;;;8.73;7.82;;;18.20;99.90;;;;;;5093382;28;20020;-74
2021/08/22 02:19:18;;;;;;;8.15;7.32;;;18.30;99.90;;;;;;5092048;28;20107;-74
2021/08/22 02:21:45;;;;;;;7.90;7.10;;;18.30;99.90;;;;;;5086427;28;20020;-75
2021/08/22 02:24:11;;;;;;;9.18;7.72;;;18.30;99.90;;;;;;5095162;28;20039;-75
2021/08/22 02:26:37;;;;;;;7.55;6.75;;;18.30;99.90;;;;;;5084535;28;20475;-75
2021/08/22 02:29:03;;;;;;;7.47;6.78;;;18.10;99.90;;;;;;5087233;28;20017;-76
2021/08/22 02:31:29;;;;;;;9.32;7.50;;;18.20;99.90;;;;;;5085784;28;20048;-76
2021/08/22 02:33:56;;;;;;;8.90;7.05;;;18.10;99.90;;;;;;5085167;28;20100;-75
2021/08/22 02:36:22;;;;;;;8.00;7.20;;;18.30;99.90;;;;;;5079471;28;20031;-76
2021/08/22 02:38:47;;;;;;;7.57;6.53;;;18.30;99.90;;;;;;5097943;28;20509;-76
2021/08/22 02:41:13;;;;;;;8.48;6.78;;;18.40;99.90;;;;;;5092117;28;20107;-76
2021/08/22 02:43:39;;;;;;;8.35;7.40;;;18.30;99.90;;;;;;5091255;28;20039;-75
2021/08/22 02:46:06;;;;;;;9.85;7.90;;;18.40;99.90;;;;;;5102206;28;20028;-74
2021/08/22 02:48:31;;;;;;;10.13;7.60;;;18.20;99.90;;;;;;5108431;28;20088;-75
2021/08/22 02:50:57;;;;;;;8.40;7.50;;;17.60;99.90;;;;;;5071700;28;20487;-75
2021/08/22 02:53:22;;;;;;;10.23;7.60;;;17.40;99.90;;;;;;5076912;28;20036;-74
2021/08/22 02:55:48;;;;;;;8.23;7.35;;;17.40;99.90;;;;;;5083896;28;20020;-75
2021/08/22 02:58:14;;;;;;;11.57;7.47;;;17.70;99.90;;;;;;5086414;28;20474;-75
2021/08/22 03:00:39;;;;;;;8.07;7.28;;;17.80;99.90;;;;;;5092674;28;20078;-75
2021/08/22 03:03:05;;;;;;;8.88;7.63;;;17.70;99.90;;;;;;5078623;28;20028;-74
2021/08/22 03:05:30;;;;;;;9.95;8.23;;;17.70;99.90;;;;;;5098805;28;20103;-74
2021/08/22 03:07:56;;;;;;;10.38;8.07;;;17.80;99.90;;;;;;5083075;28;20038;-74
2021/08/22 03:10:21;;;;;;;9.65;8.25;;;17.80;99.90;;;;;;5084153;28;20132;-73
2021/08/22 03:12:47;;;;;;;9.70;8.70;;;17.80;99.90;;;;;;5070899;28;20020;-73
2021/08/22 03:15:13;;;;;;;9.57;8.35;;;17.70;99.90;;;;;;5084971;28;20058;-73
2021/08/22 03:17:39;;;;;;;9.93;8.07;;;17.80;99.90;;;;;;5078800;28;20024;-74
2021/08/22 03:20:05;;;;;;;9.93;8.93;;;18.00;99.90;;;;;;5072055;28;20368;-74
2021/08/22 03:22:32;;;;;;;10.07;9.07;;;18.00;99.90;;;;;;5081292;28;20035;-76
2021/08/22 03:24:57;;;;;;;12.35;9.70;;;18.00;99.90;;;;;;5071790;28;20021;-74
2021/08/22 03:27:23;;;;;;;13.52;9.80;;;18.00;99.90;;;;;;5085318;28;20042;-75
2021/08/22 03:29:49;;;;;;;11.65;10.30;;;17.90;99.90;;;;;;5090774;28;20381;-75
2021/08/22 03:32:14;;;;;;;11.98;10.70;;;17.80;99.90;;;;;;5094611;28;20474;-75
2021/08/22 03:34:40;;;;;;;12.55;10.80;;;17.70;99.90;;;;;;5096413;28;20028;-74
2021/08/22 03:37:06;;;;;;;13.65;11.18;;;17.70;99.90;;;;;;5094735;28;20024;-75
2021/08/22 03:39:32;;;;;;;13.68;10.52;;;17.50;99.90;;;;;;5071871;28;20031;-75
2021/08/22 03:41:57;;;;;;;16.30;11.00;;;17.40;99.90;;;;;;5084936;28;20111;-74
2021/08/22 03:44:23;;;;;;;13.45;11.57;;;17.50;99.90;;;;;;5071545;28;20086;-74
2021/08/22 03:46:49;;;;;;;15.75;11.45;;;17.30;99.90;;;;;;5085104;28;20035;-75
2021/08/22 03:49:14;;;;;;;14.93;12.23;;;17.20;99.90;;;;;;5078226;28;20039;-75
2021/08/22 03:51:40;;;;;;;12.57;11.10;;;17.20;99.90;;;;;;5091792;28;20042;-74
2021/08/22 03:54:06;;;;;;;13.18;11.77;;;17.10;99.90;;;;;;5071908;28;20070;-75
2021/08/22 03:56:31;;;;;;;14.25;12.75;;;17.30;99.90;;;;;;5071557;28;20033;-75
2021/08/22 03:58:57;;;;;;;14.98;13.13;;;17.30;99.90;;;;;;5071538;28;20016;-75
2021/08/22 04:01:22;;;;;;;14.15;12.75;;;17.30;99.90;;;;;;5071475;28;20035;-74
2021/08/22 04:03:49;;;;;;;15.00;13.40;;;17.40;99.90;;;;;;5071626;28;20104;-74
2021/08/22 04:06:16;;;;;;;15.07;12.57;;;17.40;99.90;;;;;;5071456;28;20497;-75
2021/08/22 04:08:41;;;;;;;16.77;13.98;;;17.40;99.90;;;;;;5090893;28;20089;-75
2021/08/22 04:11:08;;;;;;;14.52;13.00;;;17.40;99.90;;;;;;5078977;28;20121;-75
2021/08/22 04:13:34;;;;;;;14.63;13.13;;;17.40;99.90;;;;;;5077950;28;20035;-75
2021/08/22 04:16:00;;;;;;;17.80;13.60;;;17.60;99.90;;;;;;5084950;28;20024;-75
2021/08/22 04:18:25;;;;;;;15.77;14.18;;;17.60;99.90;;;;;;5078251;28;20020;-75
2021/08/22 04:20:51;;;;;;;19.27;14.75;;;17.60;99.90;;;;;;5092867;28;20088;-75
2021/08/22 04:23:16;;;;;;;15.25;12.88;;;17.60;99.90;;;;;;5090854;28;20497;-74
2021/08/22 04:25:43;;;;;;;15.93;13.38;;;17.50;99.90;;;;;;5092336;28;20024;-74
2021/08/22 04:28:09;;;;;;;15.00;12.35;;;17.50;99.90;;;;;;5081004;28;20296;-73
2021/08/22 04:30:34;;;;;;;13.30;10.93;;;17.50;99.90;;;;;;5071349;28;20029;-74
2021/08/22 04:33:00;;;;;;;11.38;9.95;;;17.60;99.90;;;;;;5071097;28;20020;-74
2021/08/22 04:35:28;;;;;;;14.30;10.13;;;17.50;99.90;;;;;;5069845;28;20031;-74
2021/08/22 04:37:54;;;;;;;10.52;9.43;;;17.50;99.90;;;;;;5091065;28;20021;-75
2021/08/22 04:40:19;;;;;;;10.02;8.48;;;17.50;99.90;;;;;;5078777;28;20078;-74
2021/08/22 04:42:45;;;;;;;11.05;8.40;;;17.60;99.90;;;;;;5084687;28;20020;-74
2021/08/22 04:45:11;;;;;;;10.48;8.00;;;17.50;99.90;;;;;;5083848;28;20056;-74
2021/08/22 04:47:36;;;;;;;8.57;7.60;;;17.40;99.90;;;;;;5085300;28;20028;-74
2021/08/22 04:50:02;;;;;;;9.65;7.85;;;17.30;99.90;;;;;;5083938;28;20035;-75
2021/08/22 04:52:28;;;;;;;7.63;6.22;;;17.20;99.90;;;;;;5085185;28;20036;-74
2021/08/22 04:54:53;;;;;;;8.60;7.72;;;17.10;99.90;;;;;;5083490;28;20028;-73
2021/08/22 04:57:18;;;;;;;8.60;7.70;;;16.90;99.90;;;;;;5091389;28;20502;-74
2021/08/22 04:59:44;;;;;;;8.10;7.32;;;16.90;99.90;;;;;;5092237;28;20047;-74
2021/08/22 05:02:10;;;;;;;8.68;7.43;;;16.90;99.90;;;;;;5094714;28;20141;-73
2021/08/22 05:04:35;;;;;;;8.88;7.97;;;16.90;99.90;;;;;;5094678;28;20031;-73
2021/08/22 05:07:01;;;;;;;10.13;9.05;;;16.80;99.90;;;;;;5080844;28;20098;-74
2021/08/22 05:09:26;;;;;;;12.10;9.75;;;16.80;99.90;;;;;;5103029;28;20394;-74
2021/08/22 05:11:52;;;;;;;10.65;9.30;;;16.70;99.90;;;;;;5094662;28;20535;-75
2021/08/22 05:14:17;;;;;;;11.55;9.32;;;16.90;99.90;;;;;;5088107;28;20020;-74
2021/08/22 05:16:43;;;;;;;11.02;8.82;;;16.80;99.90;;;;;;5094610;28;20028;-75
2021/08/22 05:19:09;;;;;;;12.05;10.80;;;16.90;99.90;;;;;;5100180;28;20024;-76
2021/08/22 05:21:34;;;;;;;15.38;11.70;;;17.00;99.90;;;;;;5081003;28;20028;-77
2021/08/22 05:24:00;;;;;;;13.20;11.50;;;17.00;99.90;;;;;;5082530;28;20024;-75
2021/08/22 05:26:26;;;;;;;15.02;12.77;;;17.00;99.90;;;;;;5086294;28;20028;-75
2021/08/22 05:28:52;;;;;;;15.15;12.18;;;16.90;99.90;;;;;;5078852;28;20020;-74
2021/08/22 05:31:17;;;;;;;13.77;11.77;;;16.90;99.90;;;;;;5091113;28;20035;-74
2021/08/22 05:33:44;;;;;;;13.65;11.73;;;17.00;99.90;;;;;;5090759;28;20025;-75
2021/08/22 05:36:20;;;;;;;11.00;9.63;;;17.20;99.90;;;;;;5073794;28;20380;-74
2021/08/22 05:38:46;;;;;;;12.48;10.48;;;17.30;99.90;;;;;;5074044;28;20028;-74
2021/08/22 05:41:12;;;;;;;10.15;9.10;;;17.40;99.90;;;;;;5102258;28;20020;-74
2021/08/22 05:43:38;;;;;;;9.73;8.73;;;17.20;99.90;;;;;;5086879;28;20021;-74
2021/08/22 05:46:03;;;;;;;10.25;9.25;;;17.10;99.90;;;;;;5073689;28;20107;-74
2021/08/22 05:48:29;;;;;;;11.02;9.23;;;17.10;99.90;;;;;;5073798;28;20563;-74
2021/08/22 05:50:54;;;;;;;9.68;8.65;;;17.20;99.90;;;;;;5073760;28;20036;-74
2021/08/22 05:53:20;;;;;;;9.35;7.85;;;17.30;99.90;;;;;;5087393;28;20059;-74
2021/08/22 05:55:45;;;;;;;10.55;9.00;;;17.30;99.90;;;;;;5090594;28;20020;-74
2021/08/22 05:58:11;;;;;;;9.48;8.35;;;17.40;99.90;;;;;;5103799;28;20107;-74
2021/08/22 06:00:37;;;;;;;8.90;7.85;;;17.50;99.90;;;;;;5090447;28;20394;-74
2021/08/22 06:03:03;;;;;;;10.02;7.85;;;17.60;99.90;;;;;;5101413;28;20027;-74
2021/08/22 06:05:29;;;;;;;9.15;7.32;;;17.50;99.90;;;;;;5092203;28;20030;-74
2021/08/22 06:07:55;;;;;;;13.38;9.25;;;17.40;99.90;;;;;;5093728;28;20028;-74
2021/08/22 06:10:21;;;;;;;10.43;9.32;;;17.30;99.90;;;;;;5085916;28;20028;-74
2021/08/22 06:12:46;;;;;;;13.00;10.68;;;17.20;99.90;;;;;;5095998;28;20059;-74
2021/08/22 06:15:12;;;;;;;11.77;10.35;;;17.10;99.90;;;;;;5086508;28;20020;-74
2021/08/22 06:17:38;;;;;;;13.07;11.40;;;17.30;99.90;;;;;;5078910;28;20025;-74
2021/08/22 06:20:05;;;;;;;12.90;11.60;;;17.40;99.90;;;;;;5073233;28;20052;-75
2021/08/22 06:22:31;;;;;;;13.63;12.23;;;17.50;99.90;;;;;;5085301;28;20042;-75
2021/08/22 06:24:56;;;;;;;14.45;12.95;;;17.50;99.90;;;;;;5086938;28;20099;-75
2021/08/22 06:27:22;;;;;;;16.55;12.90;;;17.50;99.90;;;;;;5084040;28;20054;-74
2021/08/22 06:29:47;;;;;;;16.83;12.57;;;17.70;99.90;;;;;;5093281;28;20069;-75
2021/08/22 06:32:13;;;;;;;13.20;11.80;;;17.70;99.90;;;;;;5079518;28;20029;-75
2021/08/22 06:34:38;;;;;;;12.95;11.00;;;17.60;99.90;;;;;;5086273;28;20024;-74
2021/08/22 06:37:04;;;;;;;12.20;10.65;;;17.90;99.90;;;;;;5073215;28;20028;-74
2021/08/22 06:39:30;;;;;;;13.55;11.35;;;17.90;99.90;;;;;;5079404;28;20024;-73
2021/08/22 06:41:55;;;;;;;11.63;10.43;;;17.90;99.90;;;;;;5078474;28;20024;-75
2021/08/22 06:44:22;;;;;;;12.25;10.63;;;17.80;99.90;;;;;;5090544;28;20043;-75
2021/08/22 06:46:48;;;;;;;12.30;10.38;;;17.80;99.90;;;;;;5082904;27;20021;-76
2021/08/22 06:49:13;;;;;;;11.65;10.43;;;18.00;99.90;;;;;;5079441;28;20028;-76
2021/08/22 06:51:39;;;;;;;13.85;10.95;;;17.90;99.90;;;;;;5079169;28;20031;-76
2021/08/22 06:54:04;;;;;;;10.10;9.10;;;17.90;99.90;;;;;;5091485;28;20032;-73
2021/08/22 06:56:31;;;;;;;11.10;8.98;;;18.10;99.90;;;;;;5104614;28;20102;-74
2021/08/22 06:58:56;;;;;;;11.35;9.05;;;18.00;99.90;;;;;;5097021;28;20551;-74
2021/08/22 07:01:22;;;;;;;13.80;10.52;;;18.00;99.90;;;;;;5092450;28;20032;-74
2021/08/22 07:03:47;;;;;;;10.68;9.40;;;18.10;99.90;;;;;;5072353;28;20070;-74
2021/08/22 07:06:13;;;;;;;10.38;8.77;;;18.30;99.90;;;;;;5085390;28;20077;-74
2021/08/22 07:08:38;;;;;;;9.95;8.82;;;18.40;99.90;;;;;;5092543;28;20020;-72
2021/08/22 07:11:04;;;;;;;12.45;9.65;;;18.40;99.90;;;;;;5092949;28;20029;-74
2021/08/22 07:13:29;;;;;;;9.68;8.52;;;18.30;99.90;;;;;;5072729;28;20498;-74
2021/08/22 07:15:55;;;;;;;13.10;9.55;;;18.20;99.90;;;;;;5090201;28;20052;-74
2021/08/22 07:18:20;;;;;;;11.15;9.60;;;18.20;99.90;;;;;;5085019;28;20119;-73
2021/08/22 07:20:46;;;;;;;10.95;8.88;;;18.40;99.90;;;;;;5082607;28;20028;-74
2021/08/22 07:23:11;;;;;;;9.93;8.38;;;18.40;99.90;;;;;;5086029;28;20032;-73
2021/08/22 07:25:37;;;;;;;10.02;8.93;;;18.40;99.90;;;;;;5089037;28;20425;-73
2021/08/22 07:28:03;;;;;;;10.68;8.50;;;18.50;99.90;;;;;;5090357;28;20027;-74
2021/08/22 07:30:29;;;;;;;10.75;8.23;;;18.40;99.90;;;;;;5078318;28;20028;-73
2021/08/22 07:32:55;;;;;;;10.88;8.30;;;18.40;99.90;;;;;;5088656;28;20040;-73
2021/08/22 07:35:21;;;;;;;9.07;8.10;;;18.30;99.90;;;;;;5106536;28;20024;-73
2021/08/22 07:37:47;;;;;;;10.68;7.93;;;18.50;99.90;;;;;;5086594;28;20020;-74
2021/08/22 07:40:12;;;;;;;10.80;7.45;;;18.70;99.90;;;;;;5083873;28;20050;-73
2021/08/22 07:42:38;;;;;;;9.13;8.15;;;18.90;99.90;;;;;;5073022;28;20095;-73
2021/08/22 07:45:04;;;;;;;8.82;7.63;;;18.80;99.90;;;;;;5071641;28;20470;-73
2021/08/22 07:47:30;;;;;;;8.57;7.53;;;18.90;99.90;;;;;;5071741;28;20033;-73
2021/08/22 07:49:55;;;;;;;10.65;7.60;;;18.80;99.90;;;;;;5071733;28;20047;-74
2021/08/22 07:52:24;;;;;;;8.95;7.70;;;18.80;99.90;;;;;;5085124;28;20094;-74
2021/08/22 07:54:50;;;;;;;7.35;6.57;;;18.80;99.90;;;;;;5071503;28;20090;-74
2021/08/22 07:57:17;;;;;;;10.15;7.65;;;18.90;99.90;;;;;;5083989;28;20444;-76
2021/08/22 07:59:43;;;;;;;8.55;7.03;;;18.80;99.90;;;;;;5084137;28;20095;-74
2021/08/22 08:02:08;;;;;;;10.13;7.35;;;18.70;99.90;;;;;;5072612;28;20467;-74
2021/08/22 08:04:34;;;;;;;8.73;7.13;;;18.60;99.90;;;;;;5083829;28;20027;-74
2021/08/22 08:06:59;;;;;;;9.88;7.95;;;18.50;99.90;;;;;;5078185;28;20466;-74
2021/08/22 08:09:25;;;;;;;8.70;6.95;;;18.50;99.90;;;;;;5078126;28;20040;-74
2021/08/22 08:11:50;;;;;;;8.48;7.10;;;18.50;99.90;;;;;;5071316;28;20036;-73
2021/08/22 08:14:16;;;;;;;8.25;7.07;;;18.70;99.90;;;;;;5083323;28;20024;-73
2021/08/22 08:16:42;;;;;;;10.25;7.18;;;18.80;99.90;;;;;;5086118;28;20075;-73
2021/08/22 08:19:08;;;;;;;9.32;7.30;;;18.80;99.90;;;;;;5076238;28;20035;-73
2021/08/22 08:21:33;;;;;;;9.32;6.65;;;19.00;99.90;;;;;;5100307;28;20473;-73
2021/08/22 08:23:59;;;;;;;9.15;7.30;;;19.10;99.90;;;;;;5084574;28;20035;-74
2021/08/22 08:26:24;;;;;;;9.00;6.95;;;19.10;99.90;;;;;;5076004;28;20107;-74
2021/08/22 08:28:50;;;;;;;8.90;7.25;;;19.20;99.90;;;;;;5091350;28;20510;-73
2021/08/22 08:31:17;;;;;;;9.57;6.70;;;19.20;99.90;;;;;;5072790;28;20111;-73
2021/08/22 08:33:42;;;;;;;7.45;6.60;;;19.20;99.90;;;;;;5071231;28;20024;-74
2021/08/22 08:36:08;;;;;;;7.22;6.32;;;19.30;99.90;;;;;;5074288;28;20029;-73
2021/08/22 08:38:33;;;;;;;10.18;6.85;;;19.30;99.90;;;;;;5075197;28;20086;-74
2021/08/22 08:41:03;;;;;;;9.45;6.88;;;19.20;99.90;;;;;;5074961;28;20493;-74
2021/08/22 08:43:29;;;;;;;8.85;6.60;;;19.00;99.90;;;;;;5074849;28;20028;-74
2021/08/22 08:46:10;;;;;;;7.18;6.47;;;19.00;99.90;;;;;;5080043;28;20032;-74
2021/08/22 08:48:56;;;;;;;8.73;6.88;;;19.10;99.90;;;;;;5080982;28;20020;-73
2021/08/22 08:51:42;;;;;;;9.15;6.50;;;19.20;99.90;;;;;;5083264;28;20032;-74
2021/08/22 08:54:13;;;;;;;8.45;6.45;;;19.10;99.90;;;;;;5084388;28;20037;-74
2021/08/22 08:56:42;;;;;;;9.35;6.53;;;19.10;99.90;;;;;;5077342;28;20534;-74
2021/08/22 08:59:07;;;;;;;7.80;6.72;;;19.20;99.90;;;;;;5087729;28;20099;-73
2021/08/22 09:01:36;;;;;;;8.60;6.90;;;19.40;99.90;;;;;;5074528;28;20100;-74
2021/08/22 09:04:20;;;;;;;7.75;6.57;;;19.40;99.90;;;;;;5074597;28;20033;-73
2021/08/22 09:07:01;;;;;;;11.10;7.63;;;19.60;99.90;;;;;;5074541;28;20035;-74
2021/08/22 09:10:00;;;;;;;10.82;6.60;;;20.10;99.90;;;;;;5103823;28;20027;-74
2021/08/22 09:12:50;;;;;;;9.90;6.85;;;19.90;99.90;;;;;;5086362;28;20082;-74
2021/08/22 09:15:43;;;;;;;10.32;7.25;;;20.00;99.90;;;;;;5085888;28;20016;-74
2021/08/22 09:18:36;;;;;;;8.35;6.50;;;19.90;99.90;;;;;;5095167;28;20017;-74
2021/08/22 09:21:37;;;;;;;9.23;7.38;;;20.10;99.90;;;;;;5092877;28;20112;-74
2021/08/22 09:24:30;;;;;;;7.85;6.45;;;20.30;99.90;;;;;;5074314;28;20429;-74
2021/08/22 09:27:20;;;;;;;7.38;6.07;;;20.10;99.90;;;;;;5074197;28;20068;-74
2021/08/22 09:30:20;;;;;;;7.00;6.00;;;19.80;99.90;;;;;;5092481;28;20038;-73
2021/08/22 09:33:26;;;;;;;9.63;7.38;;;19.90;99.90;;;;;;5096985;28;20097;-73
2021/08/22 09:36:29;;;;;;;9.45;6.63;;;20.10;99.90;;;;;;5097187;28;20027;-74
2021/08/22 09:39:28;;;;;;;9.05;6.22;;;20.10;99.90;;;;;;5074119;28;20478;-74
2021/08/22 09:42:31;;;;;;;9.57;6.45;;;20.30;99.90;;;;;;5073914;28;20033;-74
2021/08/22 09:45:27;;;;;;;7.63;6.10;;;20.90;99.90;;;;;;5072339;28;20025;-74
2021/08/22 09:48:38;;;;;;;9.52;7.30;;;20.80;99.90;;;;;;5073950;28;20052;-74
2021/08/22 09:51:18;;;;;;;9.65;6.63;;;20.70;99.90;;;;;;5072567;28;20498;-74
2021/08/22 09:54:15;;;;;;;9.68;6.88;;;20.90;99.90;;;;;;5083566;28;20490;-74
2021/08/22 09:57:25;;;;;;;17.52;11.93;;;20.90;99.90;;;;;;5099591;28;20103;-74
2021/08/22 10:00:13;;;;;;;10.00;7.25;;;20.40;99.90;;;;;;5094877;28;20515;-73
2021/08/22 10:02:47;;;;;;;8.90;7.13;;;20.40;99.90;;;;;;5081226;28;20047;-73
2021/08/22 10:05:34;;;;;;;7.95;7.10;;;20.40;99.90;;;;;;5073597;28;20051;-73
2021/08/22 10:08:12;;;;;;;10.63;7.97;;;20.60;99.90;;;;;;5073464;28;20082;-74
2021/08/22 10:10:45;;;;;;;8.35;6.97;;;20.40;99.90;;;;;;5073155;28;20052;-74
2021/08/22 10:13:11;;;;;;;13.18;7.60;;;20.30;99.90;;;;;;5093056;28;20081;-74
2021/08/22 10:15:41;;;;;;;8.60;7.70;;;20.50;99.90;;;;;;5095447;28;20479;-74
2021/08/22 10:18:07;;;;;;;8.25;6.75;;;20.60;99.90;;;;;;5080023;28;20099;-74
2021/08/22 10:20:43;;;;;;;7.70;6.90;;;20.80;99.90;;;;;;5093486;28;20020;-74
2021/08/22 10:23:38;;;;;;;;;;;21.10;99.90;;;;;;5096917;28;20031;-74
2021/08/22 10:26:05;;;;;;;8.60;6.13;;;21.20;99.90;;;;;;5075177;28;19904;-74
2021/08/22 10:28:53;;;;;;;7.55;6.60;;;21.60;99.90;;;;;;5088048;28;20065;-73
2021/08/22 10:31:49;;;;;;;8.93;6.75;;;21.70;99.90;;;;;;5101943;28;20065;-74
2021/08/22 10:34:36;;;;;;;8.55;6.65;;;21.70;99.90;;;;;;5076238;28;20786;-74
2021/08/22 10:37:24;;;;;;;6.60;6.00;;;22.00;99.90;;;;;;5073339;28;20483;-74
2021/08/22 10:39:50;;;;;;;11.07;6.32;;;22.50;99.90;;;;;;5071724;28;20024;-74
2021/08/22 10:42:20;;;;;;;8.15;6.00;;;22.40;99.90;;;;;;5072645;28;20031;-74
2021/08/22 10:44:46;;;;;;;7.57;6.07;;;22.60;99.90;;;;;;5090350;28;20386;-74
2021/08/22 10:47:13;;;;;;;9.50;6.20;;;22.80;99.90;;;;;;5095715;28;20083;-73
2021/08/22 10:50:00;;;;;;;7.32;6.18;;;22.40;99.90;;;;;;5093249;28;20074;-74
2021/08/22 10:52:30;;;;;;;9.10;6.30;;;22.00;99.90;;;;;;5098805;28;20528;-74
2021/08/22 10:55:26;;;;;;;7.38;6.45;;;21.80;99.90;;;;;;5091283;28;20028;-74
2021/08/22 10:57:51;;;;;;;7.60;6.82;;;21.40;99.90;;;;;;5068992;28;20109;-74
2021/08/22 11:00:37;;;;;;;7.90;6.53;;;21.40;99.90;;;;;;5083674;28;20067;-74
2021/08/22 11:03:18;;;;;;;8.82;6.28;;;21.50;99.90;;;;;;5081823;28;20479;-74
2021/08/22 11:05:46;;;;;;;8.65;6.38;;;21.40;99.90;;;;;;5081110;28;20521;-74
2021/08/22 11:08:23;;;;;;;8.57;6.20;;;21.30;99.90;;;;;;5092525;28;20027;-74
2021/08/22 11:11:03;;;;;;;6.70;6.00;;;21.30;99.90;;;;;;5092503;28;20367;-74
2021/08/22 11:13:32;;;;;;;7.57;6.22;;;21.30;99.90;;;;;;5092234;28;20035;-73
2021/08/22 11:16:05;;;;;;;8.93;6.53;;;21.20;99.90;;;;;;5085892;28;20525;-74
2021/08/22 11:18:31;;;;;;;8.57;6.82;;;20.80;99.90;;;;;;5088437;28;20498;-74
2021/08/22 11:20:56;;;;;;;7.47;6.75;;;20.50;99.90;;;;;;5084886;28;20013;-75
2021/08/22 11:23:24;;;;;;;9.50;7.32;;;20.50;99.90;;;;;;5098268;28;20573;-74
2021/08/22 11:25:59;;;;;;;8.73;6.57;;;20.50;99.90;;;;;;5084193;28;20029;-74
2021/08/22 11:28:25;;;;;;;9.25;7.75;;;20.80;99.90;;;;;;5072044;28;20394;-74
2021/08/22 11:30:50;;;;;;;9.60;6.97;;;21.30;99.90;;;;;;5086079;28;20024;-74
2021/08/22 11:33:16;;;;;;;8.23;6.40;;;21.30;99.90;;;;;;5093851;28;20158;-74
2021/08/22 11:35:43;;;;;;;10.45;6.80;;;21.50;99.90;;;;;;5104746;28;20385;-74
2021/08/22 11:38:09;;;;;;;10.73;7.20;;;21.40;99.90;;;;;;5083696;28;20096;-74
2021/08/22 11:40:36;;;;;;;7.82;6.25;;;21.20;99.90;;;;;;5075074;28;20055;-74
2021/08/22 11:43:04;;;;;;;8.07;6.38;;;21.20;99.90;;;;;;5076901;28;20043;-74
2021/08/22 11:45:34;;;;;;;7.15;6.20;;;21.60;99.90;;;;;;5074088;28;20106;-74
2021/08/22 11:48:01;;;;;;;7.75;5.95;;;21.70;99.90;;;;;;5080937;28;20119;-74
2021/08/22 11:50:29;;;;;;;7.95;6.47;;;22.00;99.90;;;;;;5083549;28;20548;-74
2021/08/22 11:52:57;;;;;;;8.43;7.28;;;21.90;99.90;;;;;;5074857;28;20036;-75
2021/08/22 11:55:31;;;;;;;9.43;6.47;;;21.50;99.90;;;;;;5090013;28;20024;-75
2021/08/22 11:58:06;;;;;;;8.02;6.32;;;21.30;99.90;;;;;;5080977;28;20370;-75
2021/08/22 12:00:33;;;;;;;7.35;6.57;;;21.40;99.90;;;;;;5077618;28;20024;-75
2021/08/22 12:03:02;;;;;;;8.10;6.30;;;21.40;99.90;;;;;;5079025;28;20112;-75
2021/08/22 12:05:29;;;;;;;7.30;6.47;;;21.40;99.90;;;;;;5085287;28;20028;-75
2021/08/22 12:08:07;;;;;;;6.88;6.18;;;21.10;99.90;;;;;;5083477;28;20031;-75
2021/08/22 12:10:35;;;;;;;6.10;5.50;;;20.80;99.90;;;;;;5088020;28;20016;-75
2021/08/22 12:13:02;;;;;;;7.07;5.97;;;20.60;99.90;;;;;;5077202;28;20552;-75
2021/08/22 12:15:33;;;;;;;7.22;5.57;;;20.10;99.90;;;;;;5095969;28;20073;-75
2021/08/22 12:18:12;;;;;;;7.43;5.60;;;20.10;99.90;;;;;;5096281;28;20416;-74
2021/08/22 12:20:38;;;;;;;7.07;5.40;;;20.20;99.90;;;;;;5079031;28;20082;-75
2021/08/22 12:23:05;;;;;;;6.95;5.55;;;19.90;99.90;;;;;;5074343;28;20029;-75
2021/08/22 12:25:33;;;;;;;5.95;5.10;;;19.80;99.90;;;;;;5086668;28;20071;-75
2021/08/22 12:28:22;;;;;;;6.57;5.25;;;19.90;99.90;;;;;;5080928;28;20024;-75
2021/08/22 12:31:00;;;;;;;6.68;5.13;;;19.90;99.90;;;;;;5089251;28;20055;-75
2021/08/22 12:33:37;;;;;;;8.30;5.53;;;19.60;99.90;;;;;;5084424;28;20027;-75
2021/08/22 12:36:17;;;;;;;7.55;5.75;;;19.50;99.90;;;;;;5091477;28;20017;-75
2021/08/22 12:38:51;;;;;;;6.55;5.15;;;19.30;99.90;;;;;;5087919;28;20363;-75
2021/08/22 12:41:23;;;;;;;6.93;5.40;;;19.20;99.90;;;;;;5088823;28;20471;-75
2021/08/22 12:43:48;;;;;;;5.95;5.13;;;19.10;99.90;;;;;;5087664;28;20028;-75
2021/08/22 12:46:14;;;;;;;5.20;4.70;;;19.30;99.90;;;;;;5074971;28;20024;-75
2021/08/22 12:48:39;;;;;;;5.95;5.15;;;19.20;99.90;;;;;;5088806;28;20028;-75
2021/08/22 12:51:09;;;;;;;7.78;6.05;;;19.40;99.90;;;;;;5080868;28;20142;-75
2021/08/22 12:53:35;;;;;;;6.72;5.13;;;19.60;99.90;;;;;;5081470;28;20051;-75